sensor_id;sensor_type;location;lat;lon;timestamp;P1;durP1;ratioP1;P2;durP2;ratioP2
35442;SDS011;21561;55.654;37.592;2023-07-02T00:00:04;18.92;;;6.65;;
35442;SDS011;21561;55.654;37.592;2023-07-02T00:02:33;14.95;;;6.82;;
35442;SDS011;21561;55.654;37.592;2023-07-02T00:05:00;13.90;;;6.13;;
35442;SDS011;21561;55.654;37.592;2023-07-02T00:07:29;15.93;;;6.43;;
35442;SDS011;21561;55.654;37.592;2023-07-02T00:09:57;17.70;;;6.50;;
35442;SDS011;21561;55.654;37.592;2023-07-02T00:12:24;15.77;;;6.40;;
35442;SDS011;21561;55.654;37.592;2023-07-02T00:14:51;13.52;;;6.22;;
35442;SDS011;21561;55.654;37.592;2023-07-02T00:17:20;16.13;;;6.40;;
35442;SDS011;21561;55.654;37.592;2023-07-02T00:19:47;15.05;;;6.70;;
35442;SDS011;21561;55.654;37.592;2023-07-02T00:22:19;14.57;;;6.75;;
35442;SDS011;21561;55.654;37.592;2023-07-02T00:24:47;15.57;;;6.78;;
35442;SDS011;21561;55.654;37.592;2023-07-02T00:27:14;17.42;;;6.57;;
35442;SDS011;21561;55.654;37.592;2023-07-02T00:29:41;15.35;;;6.55;;
35442;SDS011;21561;55.654;37.592;2023-07-02T00:32:08;15.57;;;6.32;;
35442;SDS011;21561;55.654;37.592;2023-07-02T00:34:35;16.17;;;6.68;;
35442;SDS011;21561;55.654;37.592;2023-07-02T00:37:02;17.15;;;6.30;;
35442;SDS011;21561;55.654;37.592;2023-07-02T00:39:29;17.52;;;6.85;;
35442;SDS011;21561;55.654;37.592;2023-07-02T00:42:00;16.13;;;6.55;;
35442;SDS011;21561;55.654;37.592;2023-07-02T00:44:29;17.13;;;6.47;;
35442;SDS011;21561;55.654;37.592;2023-07-02T00:46:57;13.50;;;6.10;;
35442;SDS011;21561;55.654;37.592;2023-07-02T00:49:24;17.67;;;6.90;;
35442;SDS011;21561;55.654;37.592;2023-07-02T00:51:51;14.77;;;6.28;;
35442;SDS011;21561;55.654;37.592;2023-07-02T00:54:18;15.15;;;6.88;;
35442;SDS011;21561;55.654;37.592;2023-07-02T00:56:45;15.60;;;6.50;;
35442;SDS011;21561;55.654;37.592;2023-07-02T00:59:12;15.48;;;6.70;;
35442;SDS011;21561;55.654;37.592;2023-07-02T01:01:39;14.13;;;6.50;;
35442;SDS011;21561;55.654;37.592;2023-07-02T01:04:07;15.63;;;6.15;;
35442;SDS011;21561;55.654;37.592;2023-07-02T01:06:39;14.68;;;6.03;;
35442;SDS011;21561;55.654;37.592;2023-07-02T01:09:08;14.32;;;5.88;;
35442;SDS011;21561;55.654;37.592;2023-07-02T01:11:45;14.10;;;6.20;;
35442;SDS011;21561;55.654;37.592;2023-07-02T01:14:19;17.25;;;6.28;;
35442;SDS011;21561;55.654;37.592;2023-07-02T01:16:52;18.45;;;5.90;;
35442;SDS011;21561;55.654;37.592;2023-07-02T01:19:21;15.98;;;5.97;;
35442;SDS011;21561;55.654;37.592;2023-07-02T01:22:08;13.85;;;6.10;;
35442;SDS011;21561;55.654;37.592;2023-07-02T01:24:36;17.20;;;6.57;;
35442;SDS011;21561;55.654;37.592;2023-07-02T01:27:05;14.18;;;6.25;;
35442;SDS011;21561;55.654;37.592;2023-07-02T01:29:33;15.65;;;6.53;;
35442;SDS011;21561;55.654;37.592;2023-07-02T01:32:03;14.00;;;5.90;;
35442;SDS011;21561;55.654;37.592;2023-07-02T01:34:31;15.45;;;6.40;;
35442;SDS011;21561;55.654;37.592;2023-07-02T01:36:59;18.42;;;6.47;;
35442;SDS011;21561;55.654;37.592;2023-07-02T01:39:26;16.77;;;6.93;;
35442;SDS011;21561;55.654;37.592;2023-07-02T01:42:08;14.75;;;6.40;;
35442;SDS011;21561;55.654;37.592;2023-07-02T01:44:36;15.07;;;6.63;;
35442;SDS011;21561;55.654;37.592;2023-07-02T01:47:04;16.15;;;6.47;;
35442;SDS011;21561;55.654;37.592;2023-07-02T01:49:31;15.75;;;6.43;;
35442;SDS011;21561;55.654;37.592;2023-07-02T01:51:59;18.50;;;6.80;;
35442;SDS011;21561;55.654;37.592;2023-07-02T01:54:26;15.10;;;6.43;;
35442;SDS011;21561;55.654;37.592;2023-07-02T01:56:57;20.08;;;6.93;;
35442;SDS011;21561;55.654;37.592;2023-07-02T01:59:24;16.90;;;6.28;;
35442;SDS011;21561;55.654;37.592;2023-07-02T02:01:52;14.27;;;6.47;;
35442;SDS011;21561;55.654;37.592;2023-07-02T02:04:19;17.25;;;6.75;;
35442;SDS011;21561;55.654;37.592;2023-07-02T02:06:46;15.38;;;6.90;;
35442;SDS011;21561;55.654;37.592;2023-07-02T02:09:13;15.90;;;6.95;;
35442;SDS011;21561;55.654;37.592;2023-07-02T02:11:42;15.35;;;6.20;;
35442;SDS011;21561;55.654;37.592;2023-07-02T02:14:11;15.67;;;6.50;;
35442;SDS011;21561;55.654;37.592;2023-07-02T02:16:38;14.85;;;6.78;;
35442;SDS011;21561;55.654;37.592;2023-07-02T02:19:06;15.40;;;6.70;;
35442;SDS011;21561;55.654;37.592;2023-07-02T02:21:36;15.82;;;6.50;;
35442;SDS011;21561;55.654;37.592;2023-07-02T02:24:05;15.23;;;6.47;;
35442;SDS011;21561;55.654;37.592;2023-07-02T02:26:34;16.48;;;6.78;;
35442;SDS011;21561;55.654;37.592;2023-07-02T02:29:01;15.35;;;6.60;;
35442;SDS011;21561;55.654;37.592;2023-07-02T02:31:28;15.68;;;6.20;;
35442;SDS011;21561;55.654;37.592;2023-07-02T02:33:56;15.98;;;6.90;;
35442;SDS011;21561;55.654;37.592;2023-07-02T02:36:23;20.10;;;6.50;;
35442;SDS011;21561;55.654;37.592;2023-07-02T02:38:50;14.45;;;6.32;;
35442;SDS011;21561;55.654;37.592;2023-07-02T02:41:17;15.63;;;6.20;;
35442;SDS011;21561;55.654;37.592;2023-07-02T02:43:44;14.30;;;6.70;;
35442;SDS011;21561;55.654;37.592;2023-07-02T02:46:11;14.45;;;6.05;;
35442;SDS011;21561;55.654;37.592;2023-07-02T02:48:38;17.25;;;6.40;;
35442;SDS011;21561;55.654;37.592;2023-07-02T02:51:05;14.38;;;6.53;;
35442;SDS011;21561;55.654;37.592;2023-07-02T02:53:32;13.80;;;6.13;;
35442;SDS011;21561;55.654;37.592;2023-07-02T02:55:59;15.80;;;6.07;;
35442;SDS011;21561;55.654;37.592;2023-07-02T02:58:26;15.13;;;6.78;;
35442;SDS011;21561;55.654;37.592;2023-07-02T03:00:54;14.32;;;6.57;;
35442;SDS011;21561;55.654;37.592;2023-07-02T03:03:21;16.63;;;6.38;;
35442;SDS011;21561;55.654;37.592;2023-07-02T03:05:50;14.70;;;6.78;;
35442;SDS011;21561;55.654;37.592;2023-07-02T03:08:18;16.65;;;6.28;;
35442;SDS011;21561;55.654;37.592;2023-07-02T03:10:44;16.45;;;6.38;;
35442;SDS011;21561;55.654;37.592;2023-07-02T03:13:12;14.82;;;6.60;;
35442;SDS011;21561;55.654;37.592;2023-07-02T03:15:39;16.23;;;6.30;;
35442;SDS011;21561;55.654;37.592;2023-07-02T03:18:06;16.65;;;6.50;;
35442;SDS011;21561;55.654;37.592;2023-07-02T03:20:33;14.45;;;6.18;;
35442;SDS011;21561;55.654;37.592;2023-07-02T03:23:00;18.27;;;6.72;;
35442;SDS011;21561;55.654;37.592;2023-07-02T03:25:27;16.58;;;6.88;;
35442;SDS011;21561;55.654;37.592;2023-07-02T03:27:54;15.73;;;5.85;;
35442;SDS011;21561;55.654;37.592;2023-07-02T03:30:21;17.27;;;6.40;;
35442;SDS011;21561;55.654;37.592;2023-07-02T03:32:48;14.40;;;6.20;;
35442;SDS011;21561;55.654;37.592;2023-07-02T03:35:15;18.13;;;6.35;;
35442;SDS011;21561;55.654;37.592;2023-07-02T03:37:42;15.90;;;6.28;;
35442;SDS011;21561;55.654;37.592;2023-07-02T03:40:10;13.35;;;5.90;;
35442;SDS011;21561;55.654;37.592;2023-07-02T03:42:37;15.20;;;6.65;;
35442;SDS011;21561;55.654;37.592;2023-07-02T03:45:04;14.98;;;6.80;;
35442;SDS011;21561;55.654;37.592;2023-07-02T03:47:32;14.70;;;5.82;;
35442;SDS011;21561;55.654;37.592;2023-07-02T03:49:59;17.92;;;6.15;;
35442;SDS011;21561;55.654;37.592;2023-07-02T03:52:26;15.57;;;5.90;;
35442;SDS011;21561;55.654;37.592;2023-07-02T03:54:53;15.57;;;5.53;;
35442;SDS011;21561;55.654;37.592;2023-07-02T03:57:20;13.48;;;5.82;;
35442;SDS011;21561;55.654;37.592;2023-07-02T03:59:47;15.40;;;5.85;;
35442;SDS011;21561;55.654;37.592;2023-07-02T04:02:14;15.85;;;6.10;;
35442;SDS011;21561;55.654;37.592;2023-07-02T04:04:41;13.93;;;5.68;;
35442;SDS011;21561;55.654;37.592;2023-07-02T04:07:08;15.45;;;6.00;;
35442;SDS011;21561;55.654;37.592;2023-07-02T04:09:35;14.57;;;5.22;;
35442;SDS011;21561;55.654;37.592;2023-07-02T04:12:02;15.90;;;6.18;;
35442;SDS011;21561;55.654;37.592;2023-07-02T04:14:29;18.75;;;5.95;;
35442;SDS011;21561;55.654;37.592;2023-07-02T04:16:56;13.15;;;5.47;;
35442;SDS011;21561;55.654;37.592;2023-07-02T04:19:23;15.60;;;5.90;;
35442;SDS011;21561;55.654;37.592;2023-07-02T04:21:49;16.90;;;6.03;;
35442;SDS011;21561;55.654;37.592;2023-07-02T04:24:17;13.27;;;5.50;;
35442;SDS011;21561;55.654;37.592;2023-07-02T04:26:44;13.00;;;5.22;;
35442;SDS011;21561;55.654;37.592;2023-07-02T04:29:31;17.30;;;5.88;;
35442;SDS011;21561;55.654;37.592;2023-07-02T04:31:59;13.52;;;5.35;;
35442;SDS011;21561;55.654;37.592;2023-07-02T04:34:26;13.40;;;5.20;;
35442;SDS011;21561;55.654;37.592;2023-07-02T04:36:53;14.00;;;5.63;;
35442;SDS011;21561;55.654;37.592;2023-07-02T04:39:20;15.15;;;5.65;;
35442;SDS011;21561;55.654;37.592;2023-07-02T04:41:47;13.88;;;5.60;;
35442;SDS011;21561;55.654;37.592;2023-07-02T04:44:18;15.63;;;5.47;;
35442;SDS011;21561;55.654;37.592;2023-07-02T04:46:48;15.00;;;5.97;;
35442;SDS011;21561;55.654;37.592;2023-07-02T04:49:15;18.00;;;5.90;;
35442;SDS011;21561;55.654;37.592;2023-07-02T04:51:42;13.00;;;5.53;;
35442;SDS011;21561;55.654;37.592;2023-07-02T04:54:09;15.55;;;5.60;;
35442;SDS011;21561;55.654;37.592;2023-07-02T04:56:36;15.35;;;5.68;;
35442;SDS011;21561;55.654;37.592;2023-07-02T04:59:03;15.75;;;5.25;;
35442;SDS011;21561;55.654;37.592;2023-07-02T05:01:30;14.50;;;5.38;;
35442;SDS011;21561;55.654;37.592;2023-07-02T05:03:57;15.50;;;5.78;;
35442;SDS011;21561;55.654;37.592;2023-07-02T05:06:24;15.70;;;5.65;;
35442;SDS011;21561;55.654;37.592;2023-07-02T05:08:51;14.85;;;5.32;;
35442;SDS011;21561;55.654;37.592;2023-07-02T05:11:19;14.48;;;6.00;;
35442;SDS011;21561;55.654;37.592;2023-07-02T05:13:46;16.48;;;5.68;;
35442;SDS011;21561;55.654;37.592;2023-07-02T05:16:13;16.65;;;6.20;;
35442;SDS011;21561;55.654;37.592;2023-07-02T05:18:41;15.52;;;5.90;;
35442;SDS011;21561;55.654;37.592;2023-07-02T05:21:07;16.27;;;5.90;;
35442;SDS011;21561;55.654;37.592;2023-07-02T05:23:34;13.20;;;5.50;;
35442;SDS011;21561;55.654;37.592;2023-07-02T05:26:01;17.65;;;5.88;;
35442;SDS011;21561;55.654;37.592;2023-07-02T05:28:28;14.48;;;5.63;;
35442;SDS011;21561;55.654;37.592;2023-07-02T05:30:55;18.70;;;6.15;;
35442;SDS011;21561;55.654;37.592;2023-07-02T05:33:22;16.83;;;5.63;;
35442;SDS011;21561;55.654;37.592;2023-07-02T05:35:49;14.23;;;5.38;;
35442;SDS011;21561;55.654;37.592;2023-07-02T05:38:17;19.13;;;5.78;;
35442;SDS011;21561;55.654;37.592;2023-07-02T05:40:45;12.40;;;5.18;;
35442;SDS011;21561;55.654;37.592;2023-07-02T05:43:13;14.55;;;5.68;;
35442;SDS011;21561;55.654;37.592;2023-07-02T05:45:40;14.55;;;5.28;;
35442;SDS011;21561;55.654;37.592;2023-07-02T05:48:06;14.73;;;5.63;;
35442;SDS011;21561;55.654;37.592;2023-07-02T05:50:34;12.65;;;4.85;;
35442;SDS011;21561;55.654;37.592;2023-07-02T05:53:00;13.82;;;5.53;;
35442;SDS011;21561;55.654;37.592;2023-07-02T05:55:27;15.60;;;5.18;;
35442;SDS011;21561;55.654;37.592;2023-07-02T05:57:54;15.85;;;5.68;;
35442;SDS011;21561;55.654;37.592;2023-07-02T06:00:23;14.32;;;5.13;;
35442;SDS011;21561;55.654;37.592;2023-07-02T06:02:51;12.82;;;4.80;;
35442;SDS011;21561;55.654;37.592;2023-07-02T06:05:18;17.20;;;5.20;;
35442;SDS011;21561;55.654;37.592;2023-07-02T06:07:45;14.00;;;5.03;;
35442;SDS011;21561;55.654;37.592;2023-07-02T06:10:12;16.08;;;5.35;;
35442;SDS011;21561;55.654;37.592;2023-07-02T06:12:39;16.25;;;5.32;;
35442;SDS011;21561;55.654;37.592;2023-07-02T06:15:06;16.27;;;5.32;;
35442;SDS011;21561;55.654;37.592;2023-07-02T06:17:33;14.15;;;5.32;;
35442;SDS011;21561;55.654;37.592;2023-07-02T06:20:05;12.40;;;4.75;;
35442;SDS011;21561;55.654;37.592;2023-07-02T06:22:33;13.32;;;4.90;;
35442;SDS011;21561;55.654;37.592;2023-07-02T06:25:00;16.20;;;4.55;;
35442;SDS011;21561;55.654;37.592;2023-07-02T06:27:30;14.25;;;5.15;;
35442;SDS011;21561;55.654;37.592;2023-07-02T06:29:58;11.40;;;4.22;;
35442;SDS011;21561;55.654;37.592;2023-07-02T06:32:25;17.27;;;5.15;;
35442;SDS011;21561;55.654;37.592;2023-07-02T06:34:52;11.63;;;4.57;;
35442;SDS011;21561;55.654;37.592;2023-07-02T06:37:19;12.95;;;4.40;;
35442;SDS011;21561;55.654;37.592;2023-07-02T06:39:46;12.00;;;4.35;;
35442;SDS011;21561;55.654;37.592;2023-07-02T06:42:12;15.10;;;5.07;;
35442;SDS011;21561;55.654;37.592;2023-07-02T06:44:40;14.18;;;5.18;;
35442;SDS011;21561;55.654;37.592;2023-07-02T06:47:07;14.05;;;4.88;;
35442;SDS011;21561;55.654;37.592;2023-07-02T06:49:37;16.77;;;5.35;;
35442;SDS011;21561;55.654;37.592;2023-07-02T06:52:04;12.93;;;4.82;;
35442;SDS011;21561;55.654;37.592;2023-07-02T06:54:31;11.30;;;4.50;;
35442;SDS011;21561;55.654;37.592;2023-07-02T06:56:58;13.68;;;4.80;;
35442;SDS011;21561;55.654;37.592;2023-07-02T06:59:25;13.95;;;4.63;;
35442;SDS011;21561;55.654;37.592;2023-07-02T07:01:52;13.70;;;4.30;;
35442;SDS011;21561;55.654;37.592;2023-07-02T07:04:19;16.67;;;5.15;;
35442;SDS011;21561;55.654;37.592;2023-07-02T07:06:46;11.63;;;4.82;;
35442;SDS011;21561;55.654;37.592;2023-07-02T07:09:13;15.75;;;4.57;;
35442;SDS011;21561;55.654;37.592;2023-07-02T07:11:40;12.90;;;4.55;;
35442;SDS011;21561;55.654;37.592;2023-07-02T07:14:07;13.90;;;4.78;;
35442;SDS011;21561;55.654;37.592;2023-07-02T07:16:34;12.13;;;4.65;;
35442;SDS011;21561;55.654;37.592;2023-07-02T07:19:01;16.08;;;4.50;;
35442;SDS011;21561;55.654;37.592;2023-07-02T07:21:28;13.13;;;5.00;;
35442;SDS011;21561;55.654;37.592;2023-07-02T07:23:55;14.35;;;4.55;;
35442;SDS011;21561;55.654;37.592;2023-07-02T07:26:22;18.45;;;4.47;;
35442;SDS011;21561;55.654;37.592;2023-07-02T07:28:48;13.13;;;4.25;;
35442;SDS011;21561;55.654;37.592;2023-07-02T07:31:16;12.52;;;4.50;;
35442;SDS011;21561;55.654;37.592;2023-07-02T07:33:43;13.10;;;4.30;;
35442;SDS011;21561;55.654;37.592;2023-07-02T07:36:10;12.80;;;4.53;;
35442;SDS011;21561;55.654;37.592;2023-07-02T07:38:37;15.13;;;4.30;;
35442;SDS011;21561;55.654;37.592;2023-07-02T07:41:04;14.93;;;5.00;;
35442;SDS011;21561;55.654;37.592;2023-07-02T07:43:31;11.90;;;4.28;;
35442;SDS011;21561;55.654;37.592;2023-07-02T07:45:58;13.65;;;4.75;;
35442;SDS011;21561;55.654;37.592;2023-07-02T07:48:25;13.68;;;4.75;;
35442;SDS011;21561;55.654;37.592;2023-07-02T07:50:52;16.27;;;4.65;;
35442;SDS011;21561;55.654;37.592;2023-07-02T07:53:19;12.90;;;4.28;;
35442;SDS011;21561;55.654;37.592;2023-07-02T07:55:46;15.80;;;4.90;;
35442;SDS011;21561;55.654;37.592;2023-07-02T07:58:13;15.77;;;4.45;;
35442;SDS011;21561;55.654;37.592;2023-07-02T08:00:40;12.90;;;4.38;;
35442;SDS011;21561;55.654;37.592;2023-07-02T08:03:09;12.73;;;4.32;;
35442;SDS011;21561;55.654;37.592;2023-07-02T08:05:36;14.70;;;4.57;;
35442;SDS011;21561;55.654;37.592;2023-07-02T08:08:03;14.15;;;4.25;;
35442;SDS011;21561;55.654;37.592;2023-07-02T08:10:30;15.07;;;4.28;;
35442;SDS011;21561;55.654;37.592;2023-07-02T08:12:57;15.25;;;4.88;;
35442;SDS011;21561;55.654;37.592;2023-07-02T08:15:24;11.73;;;4.22;;
35442;SDS011;21561;55.654;37.592;2023-07-02T08:17:51;16.75;;;4.50;;
35442;SDS011;21561;55.654;37.592;2023-07-02T08:20:21;12.43;;;4.40;;
35442;SDS011;21561;55.654;37.592;2023-07-02T08:22:48;12.93;;;4.35;;
35442;SDS011;21561;55.654;37.592;2023-07-02T08:25:15;12.90;;;4.28;;
35442;SDS011;21561;55.654;37.592;2023-07-02T08:27:45;13.27;;;4.40;;
35442;SDS011;21561;55.654;37.592;2023-07-02T08:30:11;12.93;;;4.30;;
35442;SDS011;21561;55.654;37.592;2023-07-02T08:32:38;17.23;;;4.28;;
35442;SDS011;21561;55.654;37.592;2023-07-02T08:35:06;13.20;;;4.28;;
35442;SDS011;21561;55.654;37.592;2023-07-02T08:37:33;13.75;;;4.55;;
35442;SDS011;21561;55.654;37.592;2023-07-02T08:40:00;12.77;;;4.40;;
35442;SDS011;21561;55.654;37.592;2023-07-02T08:42:29;12.18;;;4.10;;
35442;SDS011;21561;55.654;37.592;2023-07-02T08:44:57;12.95;;;4.13;;
35442;SDS011;21561;55.654;37.592;2023-07-02T08:47:30;14.20;;;4.63;;
35442;SDS011;21561;55.654;37.592;2023-07-02T08:49:58;15.07;;;4.60;;
35442;SDS011;21561;55.654;37.592;2023-07-02T08:52:25;14.27;;;5.13;;
35442;SDS011;21561;55.654;37.592;2023-07-02T08:54:52;12.23;;;4.82;;
35442;SDS011;21561;55.654;37.592;2023-07-02T08:57:20;12.10;;;4.45;;
35442;SDS011;21561;55.654;37.592;2023-07-02T08:59:47;12.30;;;4.82;;
35442;SDS011;21561;55.654;37.592;2023-07-02T09:02:15;12.25;;;4.30;;
35442;SDS011;21561;55.654;37.592;2023-07-02T09:04:43;11.15;;;4.22;;
35442;SDS011;21561;55.654;37.592;2023-07-02T09:07:10;12.95;;;4.22;;
35442;SDS011;21561;55.654;37.592;2023-07-02T09:09:47;12.13;;;4.38;;
35442;SDS011;21561;55.654;37.592;2023-07-02T09:12:29;12.00;;;4.00;;
35442;SDS011;21561;55.654;37.592;2023-07-02T09:15:02;12.32;;;4.30;;
35442;SDS011;21561;55.654;37.592;2023-07-02T09:20:01;15.07;;;4.25;;
35442;SDS011;21561;55.654;37.592;2023-07-02T09:22:36;11.55;;;4.20;;
35442;SDS011;21561;55.654;37.592;2023-07-02T09:25:05;13.10;;;4.05;;
35442;SDS011;21561;55.654;37.592;2023-07-02T09:27:36;12.68;;;4.30;;
35442;SDS011;21561;55.654;37.592;2023-07-02T09:30:10;17.25;;;4.47;;
35442;SDS011;21561;55.654;37.592;2023-07-02T09:32:44;13.30;;;4.45;;
35442;SDS011;21561;55.654;37.592;2023-07-02T09:35:13;10.90;;;3.72;;
35442;SDS011;21561;55.654;37.592;2023-07-02T09:37:43;14.02;;;4.38;;
35442;SDS011;21561;55.654;37.592;2023-07-02T09:42:39;12.52;;;4.45;;
35442;SDS011;21561;55.654;37.592;2023-07-02T09:45:09;12.70;;;4.00;;
35442;SDS011;21561;55.654;37.592;2023-07-02T09:47:38;13.45;;;4.20;;
35442;SDS011;21561;55.654;37.592;2023-07-02T09:50:12;14.13;;;4.35;;
35442;SDS011;21561;55.654;37.592;2023-07-02T09:52:41;11.27;;;3.92;;
35442;SDS011;21561;55.654;37.592;2023-07-02T09:55:08;11.68;;;4.00;;
35442;SDS011;21561;55.654;37.592;2023-07-02T09:57:36;13.95;;;3.90;;
35442;SDS011;21561;55.654;37.592;2023-07-02T10:00:04;12.27;;;4.07;;
35442;SDS011;21561;55.654;37.592;2023-07-02T10:02:34;10.43;;;4.18;;
35442;SDS011;21561;55.654;37.592;2023-07-02T10:05:02;14.65;;;4.60;;
35442;SDS011;21561;55.654;37.592;2023-07-02T10:07:31;12.93;;;4.20;;
35442;SDS011;21561;55.654;37.592;2023-07-02T10:10:00;14.55;;;4.05;;
35442;SDS011;21561;55.654;37.592;2023-07-02T10:12:30;11.40;;;3.92;;
35442;SDS011;21561;55.654;37.592;2023-07-02T10:14:58;13.95;;;4.15;;
35442;SDS011;21561;55.654;37.592;2023-07-02T10:17:30;13.93;;;4.68;;
35442;SDS011;21561;55.654;37.592;2023-07-02T10:20:01;11.48;;;3.72;;
35442;SDS011;21561;55.654;37.592;2023-07-02T10:22:44;17.67;;;4.50;;
35442;SDS011;21561;55.654;37.592;2023-07-02T10:25:26;12.32;;;4.10;;
35442;SDS011;21561;55.654;37.592;2023-07-02T10:27:58;12.20;;;4.40;;
35442;SDS011;21561;55.654;37.592;2023-07-02T10:30:33;12.38;;;3.92;;
35442;SDS011;21561;55.654;37.592;2023-07-02T10:33:11;12.43;;;4.53;;
35442;SDS011;21561;55.654;37.592;2023-07-02T10:35:41;12.68;;;4.10;;
35442;SDS011;21561;55.654;37.592;2023-07-02T10:38:14;13.80;;;4.22;;
35442;SDS011;21561;55.654;37.592;2023-07-02T10:40:45;14.20;;;4.03;;
35442;SDS011;21561;55.654;37.592;2023-07-02T10:43:13;16.05;;;4.15;;
35442;SDS011;21561;55.654;37.592;2023-07-02T10:45:40;12.75;;;4.90;;
35442;SDS011;21561;55.654;37.592;2023-07-02T10:48:10;11.88;;;4.22;;
35442;SDS011;21561;55.654;37.592;2023-07-02T10:50:37;14.00;;;4.25;;
35442;SDS011;21561;55.654;37.592;2023-07-02T10:53:04;11.60;;;4.13;;
35442;SDS011;21561;55.654;37.592;2023-07-02T10:55:32;12.00;;;4.18;;
35442;SDS011;21561;55.654;37.592;2023-07-02T10:58:05;14.27;;;4.45;;
35442;SDS011;21561;55.654;37.592;2023-07-02T11:00:42;13.32;;;4.32;;
35442;SDS011;21561;55.654;37.592;2023-07-02T11:03:21;9.15;;;3.70;;
35442;SDS011;21561;55.654;37.592;2023-07-02T11:05:50;10.73;;;3.70;;
35442;SDS011;21561;55.654;37.592;2023-07-02T11:08:18;12.13;;;3.90;;
35442;SDS011;21561;55.654;37.592;2023-07-02T11:13:17;13.40;;;4.05;;
35442;SDS011;21561;55.654;37.592;2023-07-02T11:15:46;10.68;;;3.70;;
35442;SDS011;21561;55.654;37.592;2023-07-02T11:18:15;10.00;;;3.70;;
35442;SDS011;21561;55.654;37.592;2023-07-02T11:20:44;11.13;;;3.80;;
35442;SDS011;21561;55.654;37.592;2023-07-02T11:23:23;11.75;;;3.95;;
35442;SDS011;21561;55.654;37.592;2023-07-02T11:25:57;11.88;;;4.10;;
35442;SDS011;21561;55.654;37.592;2023-07-02T11:28:25;13.20;;;3.75;;
35442;SDS011;21561;55.654;37.592;2023-07-02T11:30:54;13.70;;;3.97;;
35442;SDS011;21561;55.654;37.592;2023-07-02T11:33:55;11.15;;;3.67;;
35442;SDS011;21561;55.654;37.592;2023-07-02T11:36:19;13.27;;;3.75;;
35442;SDS011;21561;55.654;37.592;2023-07-02T11:38:48;13.30;;;3.47;;
35442;SDS011;21561;55.654;37.592;2023-07-02T11:41:16;10.60;;;3.47;;
35442;SDS011;21561;55.654;37.592;2023-07-02T11:43:47;13.70;;;4.35;;
35442;SDS011;21561;55.654;37.592;2023-07-02T11:46:14;11.10;;;3.92;;
35442;SDS011;21561;55.654;37.592;2023-07-02T11:48:41;11.63;;;4.30;;
35442;SDS011;21561;55.654;37.592;2023-07-02T11:51:08;11.18;;;3.85;;
35442;SDS011;21561;55.654;37.592;2023-07-02T11:53:35;12.75;;;4.03;;
35442;SDS011;21561;55.654;37.592;2023-07-02T11:56:02;13.30;;;3.90;;
35442;SDS011;21561;55.654;37.592;2023-07-02T11:58:29;13.40;;;4.40;;
35442;SDS011;21561;55.654;37.592;2023-07-02T12:00:56;15.98;;;4.00;;
35442;SDS011;21561;55.654;37.592;2023-07-02T12:03:23;14.10;;;4.10;;
35442;SDS011;21561;55.654;37.592;2023-07-02T12:05:50;12.85;;;4.07;;
35442;SDS011;21561;55.654;37.592;2023-07-02T12:08:18;12.07;;;4.30;;
35442;SDS011;21561;55.654;37.592;2023-07-02T12:10:45;11.73;;;4.05;;
35442;SDS011;21561;55.654;37.592;2023-07-02T12:13:12;15.63;;;4.38;;
35442;SDS011;21561;55.654;37.592;2023-07-02T12:15:39;12.95;;;4.10;;
35442;SDS011;21561;55.654;37.592;2023-07-02T12:18:08;15.63;;;4.15;;
35442;SDS011;21561;55.654;37.592;2023-07-02T12:20:36;11.63;;;4.00;;
35442;SDS011;21561;55.654;37.592;2023-07-02T12:23:04;13.35;;;4.35;;
35442;SDS011;21561;55.654;37.592;2023-07-02T12:25:32;11.65;;;4.20;;
35442;SDS011;21561;55.654;37.592;2023-07-02T12:27:59;12.07;;;4.47;;
35442;SDS011;21561;55.654;37.592;2023-07-02T12:30:26;15.25;;;4.50;;
35442;SDS011;21561;55.654;37.592;2023-07-02T12:32:53;15.27;;;4.53;;
35442;SDS011;21561;55.654;37.592;2023-07-02T12:35:20;13.10;;;4.13;;
35442;SDS011;21561;55.654;37.592;2023-07-02T12:37:50;10.93;;;4.10;;
35442;SDS011;21561;55.654;37.592;2023-07-02T12:40:19;13.20;;;4.28;;
35442;SDS011;21561;55.654;37.592;2023-07-02T12:42:46;14.18;;;4.82;;
35442;SDS011;21561;55.654;37.592;2023-07-02T12:45:14;13.57;;;4.78;;
35442;SDS011;21561;55.654;37.592;2023-07-02T12:47:47;13.48;;;4.55;;
35442;SDS011;21561;55.654;37.592;2023-07-02T12:50:14;15.57;;;4.72;;
35442;SDS011;21561;55.654;37.592;2023-07-02T12:52:42;14.10;;;4.45;;
35442;SDS011;21561;55.654;37.592;2023-07-02T12:55:09;15.63;;;4.47;;
35442;SDS011;21561;55.654;37.592;2023-07-02T12:57:36;11.85;;;4.63;;
35442;SDS011;21561;55.654;37.592;2023-07-02T13:00:03;16.60;;;4.65;;
35442;SDS011;21561;55.654;37.592;2023-07-02T13:02:33;15.75;;;5.05;;
35442;SDS011;21561;55.654;37.592;2023-07-02T13:05:12;12.88;;;4.80;;
35442;SDS011;21561;55.654;37.592;2023-07-02T13:07:40;15.65;;;5.18;;
35442;SDS011;21561;55.654;37.592;2023-07-02T13:10:07;16.30;;;4.90;;
35442;SDS011;21561;55.654;37.592;2023-07-02T13:12:34;19.33;;;5.57;;
35442;SDS011;21561;55.654;37.592;2023-07-02T13:15:01;13.75;;;4.93;;
35442;SDS011;21561;55.654;37.592;2023-07-02T13:17:30;14.23;;;5.15;;
35442;SDS011;21561;55.654;37.592;2023-07-02T13:19:57;13.85;;;4.78;;
35442;SDS011;21561;55.654;37.592;2023-07-02T13:22:24;15.95;;;5.20;;
35442;SDS011;21561;55.654;37.592;2023-07-02T13:24:51;13.73;;;5.40;;
35442;SDS011;21561;55.654;37.592;2023-07-02T13:27:17;17.67;;;5.78;;
35442;SDS011;21561;55.654;37.592;2023-07-02T13:29:46;15.80;;;5.43;;
35442;SDS011;21561;55.654;37.592;2023-07-02T13:32:12;15.38;;;5.30;;
35442;SDS011;21561;55.654;37.592;2023-07-02T13:34:39;14.85;;;5.40;;
35442;SDS011;21561;55.654;37.592;2023-07-02T13:37:06;13.48;;;5.38;;
35442;SDS011;21561;55.654;37.592;2023-07-02T13:39:35;14.00;;;5.47;;
35442;SDS011;21561;55.654;37.592;2023-07-02T13:42:02;14.00;;;5.82;;
35442;SDS011;21561;55.654;37.592;2023-07-02T13:44:29;13.35;;;5.18;;
35442;SDS011;21561;55.654;37.592;2023-07-02T13:46:56;13.57;;;5.45;;
35442;SDS011;21561;55.654;37.592;2023-07-02T13:49:23;14.27;;;5.55;;
35442;SDS011;21561;55.654;37.592;2023-07-02T13:51:50;12.30;;;4.93;;
35442;SDS011;21561;55.654;37.592;2023-07-02T13:54:17;13.77;;;5.00;;
35442;SDS011;21561;55.654;37.592;2023-07-02T13:56:45;13.43;;;4.80;;
35442;SDS011;21561;55.654;37.592;2023-07-02T13:59:16;15.38;;;5.40;;
35442;SDS011;21561;55.654;37.592;2023-07-02T14:01:45;16.13;;;5.50;;
35442;SDS011;21561;55.654;37.592;2023-07-02T14:04:13;13.70;;;5.60;;
35442;SDS011;21561;55.654;37.592;2023-07-02T14:06:41;12.82;;;5.15;;
35442;SDS011;21561;55.654;37.592;2023-07-02T14:09:08;14.13;;;5.13;;
35442;SDS011;21561;55.654;37.592;2023-07-02T14:11:37;14.82;;;5.25;;
35442;SDS011;21561;55.654;37.592;2023-07-02T14:14:06;17.30;;;5.85;;
35442;SDS011;21561;55.654;37.592;2023-07-02T14:16:33;13.48;;;5.47;;
35442;SDS011;21561;55.654;37.592;2023-07-02T14:19:00;16.83;;;5.22;;
35442;SDS011;21561;55.654;37.592;2023-07-02T14:21:27;16.52;;;5.70;;
35442;SDS011;21561;55.654;37.592;2023-07-02T14:23:54;12.40;;;5.00;;
35442;SDS011;21561;55.654;37.592;2023-07-02T14:26:21;16.45;;;5.25;;
35442;SDS011;21561;55.654;37.592;2023-07-02T14:28:48;14.50;;;5.45;;
35442;SDS011;21561;55.654;37.592;2023-07-02T14:31:15;15.75;;;5.57;;
35442;SDS011;21561;55.654;37.592;2023-07-02T14:33:42;12.95;;;5.30;;